createdAt,value
2017-04-19T00:00:05.187Z,2.72
2017-04-19T00:00:45.810Z,2.75
2017-04-19T00:01:26.316Z,2.74
2017-04-19T00:02:06.947Z,2.69
2017-04-19T00:02:47.524Z,2.61
2017-04-19T00:03:28.116Z,2.69
2017-04-19T00:04:08.632Z,2.68
2017-04-19T00:04:49.416Z,2.62
2017-04-19T00:05:30.025Z,2.53
2017-04-19T00:06:10.629Z,2.57
2017-04-19T00:06:51.125Z,2.56
2017-04-19T00:07:31.753Z,2.43
2017-04-19T00:08:12.277Z,2.5
2017-04-19T00:08:52.840Z,2.53
2017-04-19T00:09:33.380Z,2.51
2017-04-19T00:10:13.931Z,2.49
2017-04-19T00:10:54.503Z,2.5
2017-04-19T00:11:35.161Z,2.49
2017-04-19T00:12:15.747Z,2.5
2017-04-19T00:12:56.327Z,2.47
2017-04-19T00:13:36.850Z,2.5
2017-04-19T00:14:17.484Z,2.49
2017-04-19T00:14:58.041Z,2.36
2017-04-19T00:15:38.643Z,2.43
2017-04-19T00:16:19.169Z,2.43
2017-04-19T00:16:59.759Z,2.32
2017-04-19T00:17:40.303Z,2.33
2017-04-19T00:18:20.840Z,2.32
2017-04-19T00:19:01.423Z,2.25
2017-04-19T00:19:42.091Z,2.26
2017-04-19T00:20:22.629Z,2.25
2017-04-19T00:21:03.143Z,2.24
2017-04-19T00:21:44.752Z,2.25
2017-04-19T00:22:25.378Z,2.24
2017-04-19T00:23:05.892Z,2.2
2017-04-19T00:23:46.509Z,2.2
2017-04-19T00:24:27.126Z,2.22
2017-04-19T00:25:07.629Z,2.2
2017-04-19T00:25:48.245Z,2.18
2017-04-19T00:26:28.887Z,2.14
2017-04-19T00:27:09.402Z,2.18
2017-04-19T00:27:49.993Z,2.18
2017-04-19T00:28:30.636Z,2.2
2017-04-19T00:29:11.183Z,2.18
2017-04-19T00:29:51.755Z,2.17
2017-04-19T00:30:32.284Z,2.08
2017-04-19T00:31:12.839Z,2.17
2017-04-19T00:31:53.419Z,2.08
2017-04-19T00:32:34.039Z,2.17
2017-04-19T00:33:14.567Z,2.13
2017-04-19T00:33:55.153Z,2.14
2017-04-19T00:34:35.749Z,2.08
2017-04-19T00:35:16.346Z,2.06
2017-04-19T00:35:56.860Z,2.07
2017-04-19T00:36:37.473Z,2.06
2017-04-19T00:37:18.053Z,2
2017-04-19T00:37:58.662Z,1.91
2017-04-19T00:38:39.175Z,1.97
2017-04-19T00:39:19.762Z,1.8
2017-04-19T00:40:00.358Z,1.89
2017-04-19T00:40:40.951Z,1.84
2017-04-19T00:41:21.463Z,1.87
2017-04-19T00:42:02.078Z,1.88
2017-04-19T00:42:42.635Z,1.88
2017-04-19T00:43:23.169Z,1.88
2017-04-19T00:44:04.743Z,1.87
2017-04-19T00:44:47.342Z,1.81
2017-04-19T00:45:27.910Z,1.71
2017-04-19T00:46:08.438Z,1.87
2017-04-19T00:46:48.998Z,1.87
2017-04-19T00:47:29.553Z,1.8
2017-04-19T00:48:10.108Z,1.76
2017-04-19T00:48:50.647Z,1.81
2017-04-19T00:49:31.204Z,1.77
2017-04-19T00:50:11.747Z,1.71
2017-04-19T00:50:52.310Z,1.77
2017-04-19T00:51:32.950Z,1.78
2017-04-19T00:52:13.527Z,1.76
2017-04-19T00:52:54.093Z,1.68
2017-04-19T00:53:34.699Z,1.71
2017-04-19T00:54:15.251Z,1.74
2017-04-19T00:54:55.809Z,1.63
2017-04-19T00:55:36.357Z,1.59
2017-04-19T00:56:16.931Z,1.66
2017-04-19T00:56:57.463Z,1.62
2017-04-19T00:57:38.056Z,1.58
2017-04-19T00:58:18.648Z,1.62
2017-04-19T00:58:59.167Z,1.55
2017-04-19T00:59:39.811Z,1.6
2017-04-19T01:00:20.431Z,1.56
2017-04-19T01:01:01.097Z,1.56
2017-04-19T01:01:41.620Z,1.52
2017-04-19T01:02:22.170Z,1.55
2017-04-19T01:03:02.742Z,1.52
2017-04-19T01:03:43.280Z,1.52
2017-04-19T01:04:23.814Z,1.53
2017-04-19T01:05:04.370Z,1.56
2017-04-19T01:05:44.923Z,1.44
2017-04-19T01:06:25.466Z,1.41
2017-04-19T01:07:06.056Z,1.52
2017-04-19T01:07:46.675Z,1.45
2017-04-19T01:08:27.240Z,1.41
2017-04-19T01:09:07.790Z,1.42
2017-04-19T01:09:48.339Z,1.49
2017-04-19T01:10:28.859Z,1.48
2017-04-19T01:11:09.427Z,1.42
2017-04-19T01:11:49.995Z,1.52
2017-04-19T01:12:30.519Z,1.45
2017-04-19T01:13:11.089Z,1.34
2017-04-19T01:13:51.625Z,1.37
2017-04-19T01:14:32.182Z,1.34
2017-04-19T01:15:12.745Z,1.34
2017-04-19T01:15:53.368Z,1.34
2017-04-19T01:16:33.827Z,1.35
2017-04-19T01:17:14.392Z,1.28
2017-04-19T01:17:54.939Z,1.24
2017-04-19T01:18:35.502Z,1.23
2017-04-19T01:19:16.037Z,1.3
2017-04-19T01:19:56.591Z,1.24
2017-04-19T01:20:37.144Z,1.22
2017-04-19T01:21:17.720Z,1.23
2017-04-19T01:21:58.351Z,1.19
2017-04-19T01:22:38.889Z,1.19
2017-04-19T01:23:19.461Z,1.14
2017-04-19T01:24:00.010Z,1.1
2017-04-19T01:24:40.541Z,1.1
2017-04-19T01:25:21.114Z,1.05
2017-04-19T01:26:01.663Z,1.04
2017-04-19T01:26:42.208Z,1.06
2017-04-19T01:27:22.745Z,1.06
2017-04-19T01:28:03.349Z,1.02
2017-04-19T01:28:43.942Z,1.04
2017-04-19T01:29:24.450Z,1.02
2017-04-19T01:30:05.110Z,0.98
2017-04-19T01:30:45.652Z,0.96
2017-04-19T01:31:27.173Z,0.96
2017-04-19T01:32:07.685Z,0.98
2017-04-19T01:32:48.311Z,0.99
2017-04-19T01:33:28.875Z,0.87
2017-04-19T01:34:09.481Z,0.95
2017-04-19T01:34:49.980Z,0.86
2017-04-19T01:36:43.057Z,0.87
2017-04-19T01:37:23.718Z,0.84
2017-04-19T01:38:04.235Z,0.83
2017-04-19T01:38:44.820Z,0.84
2017-04-19T01:39:25.339Z,0.83
2017-04-19T01:40:05.944Z,0.84
2017-04-19T01:40:46.542Z,0.78
2017-04-19T01:41:27.139Z,0.8
2017-04-19T01:42:07.665Z,0.77
2017-04-19T01:42:48.239Z,0.73
2017-04-19T01:43:43.843Z,0.69
2017-04-19T01:44:24.701Z,0.73
2017-04-19T01:45:05.251Z,0.76
2017-04-19T01:45:45.898Z,0.81
2017-04-19T01:46:26.444Z,0.74
2017-04-19T01:47:06.951Z,0.8
2017-04-19T01:47:47.557Z,0.73
2017-04-19T01:48:28.110Z,0.77
2017-04-19T01:49:08.664Z,0.68
2017-04-19T01:49:49.209Z,0.69
2017-04-19T01:50:29.759Z,0.65
2017-04-19T01:51:10.318Z,0.59
2017-04-19T01:51:50.857Z,0.68
2017-04-19T01:52:31.457Z,0.62
2017-04-19T01:53:12.060Z,0.63
2017-04-19T01:53:52.566Z,0.6
2017-04-19T01:54:33.184Z,0.66
2017-04-19T01:55:13.764Z,0.63
2017-04-19T01:55:54.364Z,0.63
2017-04-19T01:56:34.860Z,0.62
2017-04-19T01:57:15.472Z,0.58
2017-04-19T01:57:56.018Z,0.52
2017-04-19T01:58:36.568Z,0.52
2017-04-19T01:59:17.139Z,0.56
2017-04-19T01:59:57.670Z,0.49
2017-04-19T02:00:38.222Z,0.49
2017-04-19T02:01:18.771Z,0.52
2017-04-19T02:01:59.413Z,0.58
2017-04-19T02:02:40.002Z,0.56
2017-04-19T02:03:20.554Z,0.58
2017-04-19T02:04:01.094Z,0.47
2017-04-19T02:04:41.625Z,0.46
2017-04-19T02:05:22.195Z,0.43
2017-04-19T02:06:02.755Z,0.37
2017-04-19T02:06:43.291Z,0.37
2017-04-19T02:07:23.857Z,0.36
2017-04-19T02:08:04.376Z,0.39
2017-04-19T02:08:45.326Z,0.31
2017-04-19T02:09:25.889Z,0.43
2017-04-19T02:10:06.464Z,0.34
2017-04-19T02:10:47.013Z,0.39
2017-04-19T02:11:28.592Z,0.32
2017-04-19T02:12:09.141Z,0.26
2017-04-19T02:12:49.732Z,0.23
2017-04-19T02:13:30.319Z,0.29
2017-04-19T02:14:11.302Z,0.36
2017-04-19T02:14:51.852Z,0.32
2017-04-19T02:15:33.459Z,0.26
2017-04-19T02:16:14.062Z,0.31
2017-04-19T02:16:54.580Z,0.31
2017-04-19T02:17:35.172Z,0.21
2017-04-19T02:18:15.801Z,0.21
2017-04-19T02:18:56.343Z,0.25
2017-04-19T02:19:36.912Z,0.22
2017-04-19T02:20:17.465Z,0.22
2017-04-19T02:20:57.962Z,0.21
2017-04-19T02:21:38.565Z,0.16
2017-04-19T02:22:19.108Z,0.11
2017-04-19T02:23:00.690Z,0.12
2017-04-19T02:23:41.652Z,0.05
2017-04-19T02:24:22.202Z,0.05
2017-04-19T02:25:02.740Z,0
2017-04-19T02:25:43.305Z,0.08
2017-04-19T02:26:23.843Z,0.04
2017-04-19T02:27:04.404Z,0.03
2017-04-19T02:27:44.950Z,0.05
2017-04-19T02:28:26.423Z,0.1
2017-04-19T02:29:06.974Z,0.01
2017-04-19T02:29:47.626Z,0.04
2017-04-19T02:30:28.178Z,0.03
2017-04-19T02:31:08.830Z,0.04
2017-04-19T02:31:50.396Z,0.05
2017-04-19T02:32:30.935Z,0.03
2017-04-19T02:33:11.505Z,0.01
2017-04-19T02:33:52.109Z,0.05
2017-04-19T02:34:32.709Z,0
2017-04-19T02:35:13.208Z,0.01
2017-04-19T02:35:53.820Z,0.07
2017-04-19T02:36:34.428Z,0.01
2017-04-19T02:37:15.014Z,0
2017-04-19T02:37:55.564Z,0.05
2017-04-19T02:38:36.117Z,-0.02
2017-04-19T02:39:16.665Z,0
2017-04-19T02:39:57.216Z,0.03
2017-04-19T02:40:37.766Z,0.04
2017-04-19T02:41:18.316Z,0.04
2017-04-19T02:41:59.884Z,0.05
2017-04-19T02:42:40.411Z,0.03
2017-04-19T02:43:20.998Z,-0.02
2017-04-19T02:44:02.616Z,-0.08
2017-04-19T02:44:44.144Z,-0.06
2017-04-19T02:45:24.771Z,-0.15
2017-04-19T02:46:05.345Z,-0.17
2017-04-19T02:46:45.900Z,-0.18
2017-04-19T02:47:26.448Z,-0.1
2017-04-19T02:48:07.024Z,-0.11
2017-04-19T02:48:47.983Z,-0.17
2017-04-19T02:49:28.583Z,-0.13
2017-04-19T02:50:09.060Z,-0.15
2017-04-19T02:50:49.629Z,-0.15
2017-04-19T02:51:30.180Z,-0.18
2017-04-19T02:52:10.757Z,-0.13
2017-04-19T02:52:51.377Z,-0.17
2017-04-19T02:53:31.916Z,-0.15
2017-04-19T02:54:13.545Z,-0.11
2017-04-19T02:54:54.142Z,-0.13
2017-04-19T02:55:34.705Z,-0.13
2017-04-19T02:56:15.263Z,-0.11
2017-04-19T02:56:55.805Z,-0.18
2017-04-19T02:57:36.342Z,-0.14
2017-04-19T02:58:16.860Z,-0.1
2017-04-19T02:58:57.467Z,-0.14
2017-04-19T02:59:37.997Z,-0.14
2017-04-19T03:00:18.505Z,-0.1
2017-04-19T03:00:59.098Z,-0.18
2017-04-19T03:01:39.647Z,-0.11
2017-04-19T03:02:20.179Z,-0.13
2017-04-19T03:03:00.753Z,-0.13
2017-04-19T03:03:41.758Z,-0.18
2017-04-19T03:04:23.279Z,-0.15
2017-04-19T03:05:03.792Z,-0.2
2017-04-19T03:05:45.324Z,-0.25
2017-04-19T03:06:26.315Z,-0.25
2017-04-19T03:07:06.913Z,-0.21
2017-04-19T03:07:47.468Z,-0.23
2017-04-19T03:08:28.025Z,-0.25
2017-04-19T03:09:08.569Z,-0.2
2017-04-19T03:09:49.122Z,-0.21
2017-04-19T03:10:29.674Z,-0.32
2017-04-19T03:11:10.616Z,-0.25
2017-04-19T03:11:52.206Z,-0.36
2017-04-19T03:12:32.717Z,-0.29
2017-04-19T03:13:13.317Z,-0.26
2017-04-19T03:13:53.907Z,-0.34
2017-04-19T03:14:34.518Z,-0.38
2017-04-19T03:15:15.042Z,-0.38
2017-04-19T03:15:55.629Z,-0.31
2017-04-19T03:16:36.183Z,-0.34
2017-04-19T03:17:16.764Z,-0.34
2017-04-19T03:17:57.368Z,-0.28
2017-04-19T03:18:37.931Z,-0.39
2017-04-19T03:19:18.484Z,-0.32
2017-04-19T03:19:59.034Z,-0.28
2017-04-19T03:20:39.612Z,-0.32
2017-04-19T03:21:20.223Z,-0.32
2017-04-19T03:22:00.774Z,-0.34
2017-04-19T03:22:41.336Z,-0.32
2017-04-19T03:23:21.888Z,-0.34
2017-04-19T03:24:02.479Z,-0.36
2017-04-19T03:24:43.104Z,-0.34
2017-04-19T03:25:24.210Z,-0.38
2017-04-19T03:26:04.800Z,-0.35
2017-04-19T03:26:45.344Z,-0.36
2017-04-19T03:27:25.894Z,-0.39
2017-04-19T03:28:06.459Z,-0.44
2017-04-19T03:28:47.017Z,-0.39
2017-04-19T03:29:27.553Z,-0.46
2017-04-19T03:30:08.089Z,-0.44
2017-04-19T03:30:48.658Z,-0.35
2017-04-19T03:31:29.182Z,-0.47
2017-04-19T03:32:09.799Z,-0.36
2017-04-19T03:32:50.421Z,-0.41
2017-04-19T03:33:30.972Z,-0.49
2017-04-19T03:34:11.515Z,-0.47
2017-04-19T03:34:52.095Z,-0.47
2017-04-19T03:35:32.706Z,-0.5
2017-04-19T03:36:14.445Z,-0.46
2017-04-19T03:36:55.062Z,-0.54
2017-04-19T03:37:35.613Z,-0.53
2017-04-19T03:38:16.186Z,-0.54
2017-04-19T03:38:56.783Z,-0.5
2017-04-19T03:39:37.488Z,-0.54
2017-04-19T03:40:18.120Z,-0.53
2017-04-19T03:40:58.706Z,-0.56
2017-04-19T03:41:39.292Z,-0.56
2017-04-19T03:42:19.807Z,-0.52
2017-04-19T03:43:00.415Z,-0.57
2017-04-19T03:43:40.974Z,-0.5
2017-04-19T03:44:21.512Z,-0.54
2017-04-19T03:45:02.075Z,-0.54
2017-04-19T03:45:42.604Z,-0.62
2017-04-19T03:46:24.186Z,-0.57
2017-04-19T03:47:04.753Z,-0.61
2017-04-19T03:47:45.302Z,-0.65
2017-04-19T03:48:25.844Z,-0.64
2017-04-19T03:49:06.404Z,-0.7
2017-04-19T03:49:47.062Z,-0.59
2017-04-19T03:50:27.575Z,-0.64
2017-04-19T03:51:08.151Z,-0.65
2017-04-19T03:51:48.700Z,-0.57
2017-04-19T03:52:29.242Z,-0.61
2017-04-19T03:53:09.837Z,-0.61
2017-04-19T03:53:50.437Z,-0.65
2017-04-19T03:54:30.970Z,-0.67
2017-04-19T03:55:11.532Z,-0.7
2017-04-19T03:55:52.135Z,-0.68
2017-04-19T03:56:32.735Z,-0.65
2017-04-19T03:57:13.303Z,-0.64
2017-04-19T03:57:53.866Z,-0.64
2017-04-19T03:58:34.384Z,-0.68
2017-04-19T03:59:14.968Z,-0.7
2017-04-19T03:59:55.517Z,-0.68
2017-04-19T04:00:36.148Z,-0.74
2017-04-19T04:01:16.721Z,-0.71
2017-04-19T04:01:57.379Z,-0.8
2017-04-19T04:02:37.934Z,-0.75
2017-04-19T04:03:18.592Z,-0.78
2017-04-19T04:03:59.218Z,-0.74
2017-04-19T04:04:39.773Z,-0.77
2017-04-19T04:05:20.325Z,-0.72
2017-04-19T04:06:00.872Z,-0.74
2017-04-19T04:06:41.429Z,-0.77
2017-04-19T04:07:21.981Z,-0.75
2017-04-19T04:08:02.512Z,-0.77
2017-04-19T04:08:43.027Z,-0.8
2017-04-19T04:09:23.660Z,-0.77
2017-04-19T04:10:04.265Z,-0.83
2017-04-19T04:10:44.798Z,-0.91
2017-04-19T04:11:25.385Z,-0.93
2017-04-19T04:12:07.300Z,-0.83
2017-04-19T04:12:47.821Z,-0.83
2017-04-19T04:13:28.371Z,-0.89
2017-04-19T04:14:08.920Z,-0.83
2017-04-19T04:14:49.472Z,-0.85
2017-04-19T04:15:30.040Z,-0.86
2017-04-19T04:16:10.601Z,-0.86
2017-04-19T04:16:51.116Z,-0.89
2017-04-19T04:17:31.680Z,-0.91
2017-04-19T04:18:12.251Z,-0.83
2017-04-19T04:18:53.872Z,-0.8
2017-04-19T04:19:34.410Z,-0.89
2017-04-19T04:20:14.989Z,-0.86
2017-04-19T04:20:55.583Z,-0.86
2017-04-19T04:21:36.393Z,-0.85
2017-04-19T04:22:17.328Z,-0.85
2017-04-19T04:22:59.024Z,-0.97
2017-04-19T04:23:39.631Z,-0.94
2017-04-19T04:24:20.221Z,-0.96
2017-04-19T04:25:00.732Z,-0.99
2017-04-19T04:25:41.451Z,-0.96
2017-04-19T04:26:22.024Z,-0.96
2017-04-19T04:27:02.639Z,-0.96
2017-04-19T04:27:43.135Z,-0.99
2017-04-19T04:28:23.764Z,-1.02
2017-04-19T04:29:04.322Z,-1.02
2017-04-19T04:29:44.847Z,-0.99
2017-04-19T04:30:26.421Z,-0.94
2017-04-19T04:31:07.000Z,-0.99
2017-04-19T04:31:47.652Z,-1.01
2017-04-19T04:32:28.184Z,-1.01
2017-04-19T04:33:08.765Z,-0.94
2017-04-19T04:33:49.375Z,-1.01
2017-04-19T04:34:29.928Z,-0.97
2017-04-19T04:35:10.513Z,-0.97
2017-04-19T04:35:51.142Z,-0.93
2017-04-19T04:36:31.678Z,-0.89
2017-04-19T04:37:12.251Z,-0.85
2017-04-19T04:37:52.798Z,-0.86
2017-04-19T04:38:33.329Z,-0.89
2017-04-19T04:39:13.919Z,-0.93
2017-04-19T04:39:54.539Z,-0.8
2017-04-19T04:40:35.096Z,-0.83
2017-04-19T04:41:15.634Z,-0.86
2017-04-19T04:41:56.197Z,-0.9
2017-04-19T04:42:36.813Z,-0.83
2017-04-19T04:43:17.420Z,-0.86
2017-04-19T04:43:58.018Z,-0.86
2017-04-19T04:44:38.537Z,-0.86
2017-04-19T04:45:19.211Z,-0.86
2017-04-19T04:46:00.748Z,-0.93
2017-04-19T04:46:41.347Z,-0.83
2017-04-19T04:47:21.857Z,-0.85
2017-04-19T04:48:02.506Z,-0.86
2017-04-19T04:48:43.020Z,-0.83
2017-04-19T04:49:23.549Z,-0.8
2017-04-19T04:50:04.108Z,-0.8
2017-04-19T04:50:44.666Z,-0.89
2017-04-19T04:51:25.223Z,-0.75
2017-04-19T04:52:05.773Z,-0.78
2017-04-19T04:52:46.326Z,-0.75
2017-04-19T04:53:26.900Z,-0.89
2017-04-19T04:54:07.504Z,-0.77
2017-04-19T04:54:48.021Z,-0.77
2017-04-19T04:55:28.633Z,-0.77
2017-04-19T04:56:09.217Z,-0.85
2017-04-19T04:56:49.862Z,-0.71
2017-04-19T04:57:30.372Z,-0.78
2017-04-19T04:58:10.996Z,-0.74
2017-04-19T04:58:51.587Z,-0.78
2017-04-19T04:59:32.195Z,-0.75
2017-04-19T05:00:12.698Z,-0.75
2017-04-19T05:00:53.268Z,-0.72
2017-04-19T05:01:33.867Z,-0.72
2017-04-19T05:02:14.471Z,-0.8
2017-04-19T05:02:54.983Z,-0.75
2017-04-19T05:03:35.613Z,-0.68
2017-04-19T05:04:16.175Z,-0.7
2017-04-19T05:04:56.778Z,-0.74
2017-04-19T05:05:37.311Z,-0.71
2017-04-19T05:06:17.962Z,-0.65
2017-04-19T05:06:58.576Z,-0.65
2017-04-19T05:07:39.101Z,-0.7
2017-04-19T05:08:19.647Z,-0.7
2017-04-19T05:09:01.224Z,-0.7
2017-04-19T05:09:41.871Z,-0.72
2017-04-19T05:10:22.423Z,-0.68
2017-04-19T05:11:02.978Z,-0.71
2017-04-19T05:11:43.520Z,-0.64
2017-04-19T05:12:24.078Z,-0.65
2017-04-19T05:13:04.592Z,-0.62
2017-04-19T05:13:45.186Z,-0.65
2017-04-19T05:14:25.783Z,-0.57
2017-04-19T05:15:06.374Z,-0.57
2017-04-19T05:15:46.909Z,-0.54
2017-04-19T05:16:27.501Z,-0.59
2017-04-19T05:17:08.097Z,-0.41
2017-04-19T05:17:48.597Z,-0.47
2017-04-19T05:18:29.152Z,-0.44
2017-04-19T05:19:09.794Z,-0.47
2017-04-19T05:19:50.318Z,-0.43
2017-04-19T05:20:31.019Z,-0.39
2017-04-19T05:21:11.852Z,-0.34
2017-04-19T05:21:52.365Z,-0.34
2017-04-19T05:22:33.089Z,-0.36
2017-04-19T05:23:13.722Z,-0.32
2017-04-19T05:23:54.271Z,-0.32
2017-04-19T05:24:34.941Z,-0.25
2017-04-19T05:25:15.523Z,-0.29
2017-04-19T05:25:56.219Z,-0.21
2017-04-19T05:26:36.745Z,-0.23
2017-04-19T05:27:17.422Z,-0.21
2017-04-19T05:27:58.146Z,-0.21
2017-04-19T05:28:38.832Z,-0.13
2017-04-19T05:29:19.354Z,-0.17
2017-04-19T05:30:00.967Z,-0.13
2017-04-19T05:30:41.627Z,-0.08
2017-04-19T05:31:26.895Z,-0.21
2017-04-19T05:32:07.571Z,-0.17
2017-04-19T05:32:49.122Z,0
2017-04-19T05:33:29.758Z,0.03
2017-04-19T05:34:10.416Z,0.01
2017-04-19T05:34:51.104Z,0.07
2017-04-19T05:35:31.841Z,0.07
2017-04-19T05:36:12.489Z,0.04
2017-04-19T05:36:53.149Z,0
2017-04-19T05:37:33.791Z,0.11
2017-04-19T05:38:14.433Z,0.12
2017-04-19T05:38:54.974Z,0.05
2017-04-19T05:39:35.628Z,0.07
2017-04-19T05:40:16.383Z,0.11
2017-04-19T05:40:56.930Z,0.1
2017-04-19T05:41:37.612Z,0.21
2017-04-19T05:42:18.237Z,0.16
2017-04-19T05:42:58.890Z,0.21
2017-04-19T05:43:39.544Z,0.22
2017-04-19T05:44:20.206Z,0.23
2017-04-19T05:45:01.985Z,0.28
2017-04-19T05:45:42.634Z,0.25
2017-04-19T05:46:23.174Z,0.32
2017-04-19T05:47:03.828Z,0.29
2017-04-19T05:47:44.491Z,0.31
2017-04-19T05:48:25.138Z,0.37
2017-04-19T05:49:05.794Z,0.26
2017-04-19T05:49:46.452Z,0.28
2017-04-19T05:50:27.123Z,0.39
2017-04-19T05:51:07.749Z,0.44
2017-04-19T05:51:48.401Z,0.46
2017-04-19T05:52:29.152Z,0.41
2017-04-19T05:53:09.667Z,0.52
2017-04-19T05:53:50.393Z,0.52
2017-04-19T05:54:31.087Z,0.44
2017-04-19T05:55:11.793Z,0.5
2017-04-19T05:55:52.701Z,0.59
2017-04-19T05:56:33.445Z,0.49
2017-04-19T05:57:14.117Z,0.52
2017-04-19T05:57:54.790Z,0.58
2017-04-19T05:58:35.362Z,0.59
2017-04-19T05:59:16.154Z,0.6
2017-04-19T05:59:57.225Z,0.63
2017-04-19T06:00:37.914Z,0.56
2017-04-19T06:01:18.438Z,0.59
2017-04-19T06:01:59.176Z,0.73
2017-04-19T06:02:39.834Z,0.74
2017-04-19T06:03:21.601Z,0.77
2017-04-19T06:04:02.226Z,0.77
2017-04-19T06:04:42.887Z,0.74
2017-04-19T06:05:23.528Z,0.7
2017-04-19T06:06:04.225Z,0.59
2017-04-19T06:06:44.947Z,0.74
2017-04-19T06:07:25.574Z,0.73
2017-04-19T06:08:06.650Z,0.74
2017-04-19T06:08:47.353Z,0.73
2017-04-19T06:09:27.951Z,0.73
2017-04-19T06:10:08.488Z,0.73
2017-04-19T06:10:49.170Z,0.77
2017-04-19T06:11:29.854Z,0.78
2017-04-19T06:12:10.556Z,0.8
2017-04-19T06:12:51.078Z,0.78
2017-04-19T06:13:31.774Z,0.81
2017-04-19T06:14:12.458Z,0.88
2017-04-19T06:14:53.168Z,0.83
2017-04-19T06:15:33.679Z,0.91
2017-04-19T06:16:14.392Z,0.81
2017-04-19T06:16:55.079Z,0.87
2017-04-19T06:17:35.776Z,0.86
2017-04-19T06:18:16.306Z,0.88
2017-04-19T06:18:57.142Z,0.91
2017-04-19T06:19:37.793Z,0.94
2017-04-19T06:20:18.495Z,0.92
2017-04-19T06:20:59.010Z,0.95
2017-04-19T06:21:39.865Z,0.99
2017-04-19T06:22:20.603Z,0.96
2017-04-19T06:23:01.308Z,0.95
2017-04-19T06:23:41.888Z,0.96
2017-04-19T06:24:22.522Z,1.02
2017-04-19T06:25:03.216Z,1.1
2017-04-19T06:25:43.925Z,1.1
2017-04-19T06:26:24.429Z,1.14
2017-04-19T06:27:05.131Z,1.05
2017-04-19T06:27:45.826Z,1.24
2017-04-19T06:28:26.355Z,1.22
2017-04-19T06:29:07.104Z,1.24
2017-04-19T06:29:47.844Z,1.3
2017-04-19T06:30:28.372Z,1.24
2017-04-19T06:31:09.065Z,1.3
2017-04-19T06:31:49.750Z,1.35
2017-04-19T06:32:30.268Z,1.32
2017-04-19T06:33:11.011Z,1.3
2017-04-19T06:33:51.712Z,1.34
2017-04-19T06:34:33.338Z,1.42
2017-04-19T06:35:13.849Z,1.4
2017-04-19T06:35:54.558Z,1.44
2017-04-19T06:36:35.239Z,1.45
2017-04-19T06:37:15.941Z,1.5
2017-04-19T06:37:56.460Z,1.52
2017-04-19T06:38:37.165Z,1.58
2017-04-19T06:39:17.857Z,1.5
2017-04-19T06:39:58.549Z,1.55
2017-04-19T06:40:39.067Z,1.59
2017-04-19T06:41:19.775Z,1.6
2017-04-19T06:42:00.883Z,1.62
2017-04-19T06:42:41.676Z,1.67
2017-04-19T06:43:22.610Z,1.73
2017-04-19T06:44:03.310Z,1.7
2017-04-19T06:44:44.110Z,1.73
2017-04-19T06:45:24.824Z,1.66
2017-04-19T06:46:05.374Z,1.73
2017-04-19T06:46:46.009Z,1.76
2017-04-19T06:47:26.676Z,1.71
2017-04-19T06:48:07.236Z,1.74
2017-04-19T06:48:47.880Z,1.8
2017-04-19T06:49:28.474Z,1.84
2017-04-19T06:50:09.023Z,1.81
2017-04-19T06:50:50.471Z,1.88
2017-04-19T06:51:31.110Z,1.95
2017-04-19T06:52:11.657Z,2.02
2017-04-19T06:52:53.243Z,2.02
2017-04-19T06:53:33.878Z,2.06
2017-04-19T06:54:14.437Z,2.06
2017-04-19T06:54:56.009Z,2.15
2017-04-19T06:55:36.567Z,2.08
2017-04-19T06:56:17.210Z,2.06
2017-04-19T06:56:57.784Z,2.17
2017-04-19T06:57:38.423Z,2.17
2017-04-19T06:58:19.106Z,2.24
2017-04-19T06:58:59.740Z,2.24
2017-04-19T06:59:40.366Z,2.31
2017-04-19T07:00:21.455Z,2.31
2017-04-19T07:01:02.091Z,2.29
2017-04-19T07:01:42.739Z,2.39
2017-04-19T07:02:23.301Z,2.35
2017-04-19T07:03:03.941Z,2.36
2017-04-19T07:03:44.517Z,2.47
2017-04-19T07:04:25.156Z,2.39
2017-04-19T07:05:05.794Z,2.49
2017-04-19T07:05:46.343Z,2.53
2017-04-19T07:06:26.903Z,2.54
2017-04-19T07:07:07.567Z,2.56
2017-04-19T07:07:48.151Z,2.67
2017-04-19T07:08:28.803Z,2.62
2017-04-19T07:09:09.400Z,2.65
2017-04-19T07:09:49.901Z,2.68
2017-04-19T07:10:30.505Z,2.77
2017-04-19T07:11:11.109Z,2.72
2017-04-19T07:11:51.804Z,2.77
2017-04-19T07:12:32.330Z,2.83
2017-04-19T07:13:12.934Z,2.98
2017-04-19T07:13:53.546Z,3
2017-04-19T07:14:34.240Z,3
2017-04-19T07:15:14.853Z,3
2017-04-19T07:15:55.373Z,3.08
2017-04-19T07:16:36.070Z,3.08
2017-04-19T07:17:16.783Z,3.05
2017-04-19T07:17:57.395Z,3.03
2017-04-19T07:18:41.712Z,3.18
2017-04-19T07:19:22.236Z,3.11
2017-04-19T07:20:02.870Z,3.05
2017-04-19T07:20:43.579Z,3.1
2017-04-19T07:21:24.330Z,3.1
2017-04-19T07:22:07.935Z,3.11
2017-04-19T07:22:48.456Z,3.01
2017-04-19T07:23:30.186Z,3.11
2017-04-19T07:24:10.860Z,3.08
2017-04-19T07:24:51.567Z,3.11
2017-04-19T07:25:32.091Z,3.04
2017-04-19T07:26:12.801Z,3.07
2017-04-19T07:26:53.489Z,3.08
2017-04-19T07:27:34.180Z,3.08
2017-04-19T07:28:14.692Z,3.07
2017-04-19T07:28:55.334Z,3.07
2017-04-19T07:29:36.040Z,3.07
2017-04-19T07:30:16.561Z,3.07
2017-04-19T07:31:01.957Z,3.07
2017-04-19T07:31:42.583Z,3.16
2017-04-19T07:32:23.217Z,3.19
2017-04-19T07:33:03.908Z,3.19
2017-04-19T07:33:44.559Z,3.26
2017-04-19T07:34:25.223Z,3.25
2017-04-19T07:35:07.451Z,3.21
2017-04-19T07:35:47.962Z,3.31
2017-04-19T07:36:28.547Z,3.36
2017-04-19T07:37:09.184Z,3.4
2017-04-19T07:37:49.772Z,3.45
2017-04-19T07:38:30.524Z,3.42
2017-04-19T07:39:11.122Z,3.47
2017-04-19T07:39:51.650Z,3.56
2017-04-19T07:40:33.271Z,3.6
2017-04-19T07:41:13.838Z,3.66
2017-04-19T07:41:55.423Z,3.65
2017-04-19T07:42:35.846Z,3.69
2017-04-19T07:43:16.578Z,3.74
2017-04-19T07:43:57.246Z,3.81
2017-04-19T07:44:37.906Z,3.81
2017-04-19T07:45:18.655Z,3.81
2017-04-19T07:45:59.287Z,3.86
2017-04-19T07:46:39.952Z,3.88
2017-04-19T07:47:20.613Z,3.81
2017-04-19T07:48:01.245Z,3.87
2017-04-19T07:48:41.921Z,3.78
2017-04-19T07:49:22.647Z,3.87
2017-04-19T07:50:03.321Z,3.96
2017-04-19T07:50:43.978Z,3.91
2017-04-19T07:51:24.624Z,3.91
2017-04-19T07:52:06.307Z,3.94
2017-04-19T07:52:46.955Z,4.08
2017-04-19T07:53:27.641Z,4.14
2017-04-19T07:54:08.347Z,4.32
2017-04-19T07:54:48.895Z,4.4
2017-04-19T07:55:29.548Z,4.49
2017-04-19T07:56:11.176Z,4.6
2017-04-19T07:56:51.781Z,4.63
2017-04-19T07:57:32.276Z,4.68
2017-04-19T07:58:12.918Z,4.7
2017-04-19T07:58:53.479Z,4.63
2017-04-19T07:59:34.087Z,4.67
2017-04-19T08:00:14.583Z,4.73
2017-04-19T08:00:55.206Z,4.82
2017-04-19T08:01:35.798Z,4.82
2017-04-19T08:02:16.384Z,4.89
2017-04-19T08:02:56.918Z,4.9
2017-04-19T08:03:37.489Z,4.89
2017-04-19T08:04:18.053Z,5.02
2017-04-19T08:04:58.614Z,5
2017-04-19T08:05:39.166Z,4.97
2017-04-19T08:06:19.718Z,5.05
2017-04-19T08:07:00.374Z,5.08
2017-04-19T08:07:41.021Z,5.18
2017-04-19T08:08:21.601Z,5.14
2017-04-19T08:09:02.207Z,5.15
2017-04-19T08:09:42.741Z,5.21
2017-04-19T08:10:23.338Z,5.2
2017-04-19T08:11:03.907Z,5.25
2017-04-19T08:11:45.537Z,5.15
2017-04-19T08:12:26.065Z,5.21
2017-04-19T08:13:06.654Z,5.25
2017-04-19T08:13:47.240Z,5.18
2017-04-19T08:14:27.826Z,5.21
2017-04-19T08:15:08.369Z,5.3
2017-04-19T08:15:50.023Z,5.38
2017-04-19T08:16:30.569Z,5.44
2017-04-19T08:17:11.161Z,5.51
2017-04-19T08:17:51.686Z,5.47
2017-04-19T08:18:33.298Z,5.51
2017-04-19T08:19:14.992Z,5.48
2017-04-19T08:19:56.549Z,5.54
2017-04-19T08:20:37.122Z,5.59
2017-04-19T08:21:17.754Z,5.61
2017-04-19T08:21:58.308Z,5.59
2017-04-19T08:22:38.949Z,5.54
2017-04-19T08:23:20.581Z,5.53
2017-04-19T08:24:01.174Z,5.56
2017-04-19T08:24:41.708Z,5.53
2017-04-19T08:25:22.293Z,5.64
2017-04-19T08:26:02.884Z,5.65
2017-04-19T08:26:43.482Z,5.65
2017-04-19T08:27:24.087Z,5.56
2017-04-19T08:28:04.707Z,5.62
2017-04-19T08:28:45.296Z,5.66
2017-04-19T08:29:25.837Z,5.64
2017-04-19T08:30:06.385Z,5.56
2017-04-19T08:30:46.942Z,5.56
2017-04-19T08:31:27.589Z,5.43
2017-04-19T08:32:09.229Z,5.36
2017-04-19T08:32:55.660Z,5.35
2017-04-19T08:33:36.211Z,5.33
2017-04-19T08:34:16.817Z,5.25
2017-04-19T08:35:10.361Z,5.15
2017-04-19T08:35:51.968Z,5.05
2017-04-19T08:36:32.595Z,5.02
2017-04-19T08:37:13.248Z,4.94
2017-04-19T08:37:54.824Z,4.87
2017-04-19T08:38:41.308Z,4.8
2017-04-19T08:39:28.826Z,4.71
2017-04-19T08:40:09.427Z,4.75
2017-04-19T08:40:51.047Z,4.68
2017-04-19T08:41:32.941Z,4.74
2017-04-19T08:42:19.345Z,4.75
2017-04-19T08:43:06.859Z,4.82
2017-04-19T08:43:48.414Z,4.8
2017-04-19T08:44:44.845Z,4.99
2017-04-19T08:45:32.375Z,4.94
2017-04-19T08:46:13.948Z,4.97
2017-04-19T08:46:54.620Z,5.02
2017-04-19T08:47:37.198Z,5.15
2017-04-19T08:48:17.850Z,5.15
2017-04-19T08:48:58.416Z,5.21
2017-04-19T08:49:40.045Z,5.25
2017-04-19T08:50:20.574Z,5.2
2017-04-19T08:51:01.211Z,5.28
2017-04-19T08:51:54.679Z,5.33
2017-04-19T08:52:48.646Z,5.32
2017-04-19T08:53:28.760Z,5.35
2017-04-19T08:54:11.305Z,5.47
2017-04-19T08:54:56.565Z,5.59
2017-04-19T08:55:37.097Z,5.69
2017-04-19T08:56:23.406Z,5.71
2017-04-19T08:57:05.082Z,5.8
2017-04-19T08:57:45.603Z,5.87
2017-04-19T08:58:30.897Z,5.87
2017-04-19T08:59:16.203Z,5.93
2017-04-19T08:59:57.825Z,5.98
2017-04-19T09:00:38.334Z,5.99
2017-04-19T09:01:19.971Z,6.07